sensor_id;sensor_type;location;lat;lon;timestamp;P1;durP1;ratioP1;P2;durP2;ratioP2
74215;SDS011;62577;53.378;-2.914;2022-11-20T00:00:48;13.90;;;4.18;;
74215;SDS011;62577;53.378;-2.914;2022-11-20T00:03:14;9.82;;;4.90;;
74215;SDS011;62577;53.378;-2.914;2022-11-20T00:05:40;12.45;;;4.85;;
74215;SDS011;62577;53.378;-2.914;2022-11-20T00:08:06;9.32;;;3.80;;
74215;SDS011;62577;53.378;-2.914;2022-11-20T00:10:35;9.25;;;4.05;;
74215;SDS011;62577;53.378;-2.914;2022-11-20T00:13:01;9.98;;;3.83;;
74215;SDS011;62577;53.378;-2.914;2022-11-20T00:15:27;7.95;;;4.03;;
74215;SDS011;62577;53.378;-2.914;2022-11-20T00:17:53;7.38;;;3.38;;
74215;SDS011;62577;53.378;-2.914;2022-11-20T00:20:19;8.27;;;3.45;;
74215;SDS011;62577;53.378;-2.914;2022-11-20T00:22:45;4.00;;;2.10;;
74215;SDS011;62577;53.378;-2.914;2022-11-20T00:25:11;19.77;;;3.90;;
74215;SDS011;62577;53.378;-2.914;2022-11-20T00:27:37;9.73;;;3.42;;
74215;SDS011;62577;53.378;-2.914;2022-11-20T00:30:04;7.00;;;3.00;;
74215;SDS011;62577;53.378;-2.914;2022-11-20T00:32:30;8.70;;;3.92;;
74215;SDS011;62577;53.378;-2.914;2022-11-20T00:34:56;8.93;;;3.35;;
74215;SDS011;62577;53.378;-2.914;2022-11-20T00:37:22;6.53;;;3.08;;
74215;SDS011;62577;53.378;-2.914;2022-11-20T00:39:48;7.05;;;2.67;;
74215;SDS011;62577;53.378;-2.914;2022-11-20T00:42:14;6.05;;;3.22;;
74215;SDS011;62577;53.378;-2.914;2022-11-20T00:44:40;8.57;;;3.20;;
74215;SDS011;62577;53.378;-2.914;2022-11-20T00:47:06;9.07;;;2.95;;
74215;SDS011;62577;53.378;-2.914;2022-11-20T00:49:32;7.80;;;3.00;;
74215;SDS011;62577;53.378;-2.914;2022-11-20T00:51:58;5.70;;;2.28;;
74215;SDS011;62577;53.378;-2.914;2022-11-20T00:54:24;5.25;;;2.75;;
74215;SDS011;62577;53.378;-2.914;2022-11-20T00:56:52;11.00;;;3.40;;
74215;SDS011;62577;53.378;-2.914;2022-11-20T00:59:18;3.25;;;2.05;;
74215;SDS011;62577;53.378;-2.914;2022-11-20T01:01:44;5.22;;;1.73;;
74215;SDS011;62577;53.378;-2.914;2022-11-20T01:04:10;6.45;;;2.13;;
74215;SDS011;62577;53.378;-2.914;2022-11-20T01:06:38;7.05;;;1.50;;
74215;SDS011;62577;53.378;-2.914;2022-11-20T01:09:09;3.85;;;1.77;;
74215;SDS011;62577;53.378;-2.914;2022-11-20T01:11:37;4.85;;;1.48;;
74215;SDS011;62577;53.378;-2.914;2022-11-20T01:14:04;7.13;;;3.15;;
74215;SDS011;62577;53.378;-2.914;2022-11-20T01:16:32;2.22;;;1.30;;
74215;SDS011;62577;53.378;-2.914;2022-11-20T01:18:59;6.65;;;1.50;;
74215;SDS011;62577;53.378;-2.914;2022-11-20T01:21:27;3.13;;;1.60;;
74215;SDS011;62577;53.378;-2.914;2022-11-20T01:23:53;2.97;;;1.55;;
74215;SDS011;62577;53.378;-2.914;2022-11-20T01:26:20;1.73;;;0.93;;
74215;SDS011;62577;53.378;-2.914;2022-11-20T01:28:47;2.50;;;1.10;;
74215;SDS011;62577;53.378;-2.914;2022-11-20T01:31:17;4.78;;;1.95;;
74215;SDS011;62577;53.378;-2.914;2022-11-20T01:33:44;2.40;;;1.20;;
74215;SDS011;62577;53.378;-2.914;2022-11-20T01:36:10;4.57;;;1.70;;
74215;SDS011;62577;53.378;-2.914;2022-11-20T01:38:36;6.95;;;2.20;;
74215;SDS011;62577;53.378;-2.914;2022-11-20T01:41:03;6.38;;;1.60;;
74215;SDS011;62577;53.378;-2.914;2022-11-20T01:43:29;8.75;;;2.97;;
74215;SDS011;62577;53.378;-2.914;2022-11-20T01:45:56;6.18;;;2.03;;
74215;SDS011;62577;53.378;-2.914;2022-11-20T01:48:24;4.72;;;2.10;;
74215;SDS011;62577;53.378;-2.914;2022-11-20T01:50:51;8.85;;;2.22;;
74215;SDS011;62577;53.378;-2.914;2022-11-20T01:53:18;6.63;;;2.08;;
74215;SDS011;62577;53.378;-2.914;2022-11-20T01:58:13;5.00;;;2.13;;
74215;SDS011;62577;53.378;-2.914;2022-11-20T02:00:40;3.40;;;2.22;;
74215;SDS011;62577;53.378;-2.914;2022-11-20T02:03:09;5.78;;;2.15;;
74215;SDS011;62577;53.378;-2.914;2022-11-20T02:05:45;3.28;;;1.52;;
74215;SDS011;62577;53.378;-2.914;2022-11-20T02:08:13;5.43;;;2.08;;
74215;SDS011;62577;53.378;-2.914;2022-11-20T02:10:39;4.60;;;1.70;;
74215;SDS011;62577;53.378;-2.914;2022-11-20T02:13:05;4.35;;;1.88;;
74215;SDS011;62577;53.378;-2.914;2022-11-20T02:15:50;3.25;;;1.70;;
74215;SDS011;62577;53.378;-2.914;2022-11-20T02:18:17;5.88;;;2.55;;
74215;SDS011;62577;53.378;-2.914;2022-11-20T02:20:46;4.10;;;2.05;;
74215;SDS011;62577;53.378;-2.914;2022-11-20T02:25:38;9.80;;;3.22;;
74215;SDS011;62577;53.378;-2.914;2022-11-20T02:28:05;5.88;;;2.80;;
74215;SDS011;62577;53.378;-2.914;2022-11-20T02:30:31;9.63;;;4.00;;
74215;SDS011;62577;53.378;-2.914;2022-11-20T02:32:57;7.95;;;3.90;;
74215;SDS011;62577;53.378;-2.914;2022-11-20T02:37:51;8.75;;;4.45;;
74215;SDS011;62577;53.378;-2.914;2022-11-20T02:40:18;7.65;;;4.18;;
74215;SDS011;62577;53.378;-2.914;2022-11-20T02:42:44;8.77;;;4.05;;
74215;SDS011;62577;53.378;-2.914;2022-11-20T02:45:10;7.13;;;3.95;;
74215;SDS011;62577;53.378;-2.914;2022-11-20T02:47:36;6.78;;;3.20;;
74215;SDS011;62577;53.378;-2.914;2022-11-20T02:50:03;7.07;;;3.10;;
74215;SDS011;62577;53.378;-2.914;2022-11-20T02:52:29;9.23;;;4.65;;
74215;SDS011;62577;53.378;-2.914;2022-11-20T02:54:55;8.35;;;4.78;;
74215;SDS011;62577;53.378;-2.914;2022-11-20T02:57:21;11.02;;;5.10;;
74215;SDS011;62577;53.378;-2.914;2022-11-20T02:59:47;9.25;;;5.18;;
74215;SDS011;62577;53.378;-2.914;2022-11-20T03:02:13;12.07;;;5.50;;
74215;SDS011;62577;53.378;-2.914;2022-11-20T03:04:39;10.18;;;5.47;;
74215;SDS011;62577;53.378;-2.914;2022-11-20T03:07:07;11.02;;;6.25;;
74215;SDS011;62577;53.378;-2.914;2022-11-20T03:09:33;9.45;;;5.70;;
74215;SDS011;62577;53.378;-2.914;2022-11-20T03:11:59;10.52;;;5.35;;
74215;SDS011;62577;53.378;-2.914;2022-11-20T03:14:25;12.70;;;6.55;;
74215;SDS011;62577;53.378;-2.914;2022-11-20T03:16:51;9.43;;;5.55;;
74215;SDS011;62577;53.378;-2.914;2022-11-20T03:19:17;9.88;;;6.85;;
74215;SDS011;62577;53.378;-2.914;2022-11-20T03:21:43;15.43;;;8.52;;
74215;SDS011;62577;53.378;-2.914;2022-11-20T03:24:09;11.48;;;8.13;;
74215;SDS011;62577;53.378;-2.914;2022-11-20T03:26:35;11.27;;;6.60;;
74215;SDS011;62577;53.378;-2.914;2022-11-20T03:29:02;14.13;;;8.05;;
74215;SDS011;62577;53.378;-2.914;2022-11-20T03:31:33;11.95;;;7.60;;
74215;SDS011;62577;53.378;-2.914;2022-11-20T03:34:00;14.88;;;8.10;;
74215;SDS011;62577;53.378;-2.914;2022-11-20T03:36:27;15.25;;;9.68;;
74215;SDS011;62577;53.378;-2.914;2022-11-20T03:38:54;15.15;;;7.78;;
74215;SDS011;62577;53.378;-2.914;2022-11-20T03:41:21;15.05;;;9.77;;
74215;SDS011;62577;53.378;-2.914;2022-11-20T03:43:48;10.27;;;7.22;;
74215;SDS011;62577;53.378;-2.914;2022-11-20T03:46:14;13.90;;;8.93;;
74215;SDS011;62577;53.378;-2.914;2022-11-20T03:48:40;15.13;;;8.73;;
74215;SDS011;62577;53.378;-2.914;2022-11-20T03:51:14;17.98;;;9.80;;
74215;SDS011;62577;53.378;-2.914;2022-11-20T03:53:40;16.50;;;9.65;;
74215;SDS011;62577;53.378;-2.914;2022-11-20T03:56:07;15.02;;;10.45;;
74215;SDS011;62577;53.378;-2.914;2022-11-20T03:58:34;18.95;;;9.82;;
74215;SDS011;62577;53.378;-2.914;2022-11-20T04:01:06;16.15;;;9.02;;
74215;SDS011;62577;53.378;-2.914;2022-11-20T04:03:32;16.92;;;10.73;;
74215;SDS011;62577;53.378;-2.914;2022-11-20T04:06:02;18.60;;;10.35;;
74215;SDS011;62577;53.378;-2.914;2022-11-20T04:08:29;14.18;;;9.95;;
74215;SDS011;62577;53.378;-2.914;2022-11-20T04:10:55;18.45;;;10.68;;
74215;SDS011;62577;53.378;-2.914;2022-11-20T04:13:21;15.40;;;9.02;;
74215;SDS011;62577;53.378;-2.914;2022-11-20T04:15:47;19.50;;;11.48;;
74215;SDS011;62577;53.378;-2.914;2022-11-20T04:18:13;16.10;;;10.60;;
74215;SDS011;62577;53.378;-2.914;2022-11-20T04:20:39;21.60;;;11.57;;
74215;SDS011;62577;53.378;-2.914;2022-11-20T04:23:06;21.17;;;11.63;;
74215;SDS011;62577;53.378;-2.914;2022-11-20T04:25:32;20.70;;;12.32;;
74215;SDS011;62577;53.378;-2.914;2022-11-20T04:27:58;19.63;;;10.52;;
74215;SDS011;62577;53.378;-2.914;2022-11-20T04:30:24;28.42;;;12.13;;
74215;SDS011;62577;53.378;-2.914;2022-11-20T04:32:50;16.73;;;10.60;;
74215;SDS011;62577;53.378;-2.914;2022-11-20T04:35:16;18.40;;;11.27;;
74215;SDS011;62577;53.378;-2.914;2022-11-20T04:37:42;17.75;;;9.45;;
74215;SDS011;62577;53.378;-2.914;2022-11-20T04:40:08;15.05;;;9.70;;
74215;SDS011;62577;53.378;-2.914;2022-11-20T04:42:34;19.73;;;10.48;;
74215;SDS011;62577;53.378;-2.914;2022-11-20T04:45:00;17.73;;;9.45;;
74215;SDS011;62577;53.378;-2.914;2022-11-20T04:47:26;15.38;;;9.48;;
74215;SDS011;62577;53.378;-2.914;2022-11-20T04:49:52;18.15;;;9.27;;
74215;SDS011;62577;53.378;-2.914;2022-11-20T04:52:18;19.33;;;9.35;;
74215;SDS011;62577;53.378;-2.914;2022-11-20T04:54:44;16.33;;;9.00;;
74215;SDS011;62577;53.378;-2.914;2022-11-20T04:57:12;21.67;;;9.48;;
74215;SDS011;62577;53.378;-2.914;2022-11-20T04:59:38;19.95;;;8.90;;
74215;SDS011;62577;53.378;-2.914;2022-11-20T05:02:04;13.20;;;7.50;;
74215;SDS011;62577;53.378;-2.914;2022-11-20T05:04:30;12.65;;;7.07;;
74215;SDS011;62577;53.378;-2.914;2022-11-20T05:06:56;15.93;;;7.22;;
74215;SDS011;62577;53.378;-2.914;2022-11-20T05:09:22;13.55;;;6.72;;
74215;SDS011;62577;53.378;-2.914;2022-11-20T05:11:48;12.15;;;7.45;;
74215;SDS011;62577;53.378;-2.914;2022-11-20T05:14:14;16.60;;;7.38;;
74215;SDS011;62577;53.378;-2.914;2022-11-20T05:16:40;12.48;;;5.90;;
74215;SDS011;62577;53.378;-2.914;2022-11-20T05:19:06;15.10;;;6.70;;
74215;SDS011;62577;53.378;-2.914;2022-11-20T05:21:32;15.00;;;6.00;;
74215;SDS011;62577;53.378;-2.914;2022-11-20T05:23:58;13.20;;;4.97;;
74215;SDS011;62577;53.378;-2.914;2022-11-20T05:26:24;13.55;;;4.90;;
74215;SDS011;62577;53.378;-2.914;2022-11-20T05:28:50;14.02;;;4.88;;
74215;SDS011;62577;53.378;-2.914;2022-11-20T05:31:18;16.05;;;4.45;;
74215;SDS011;62577;53.378;-2.914;2022-11-20T05:33:44;18.08;;;4.00;;
74215;SDS011;62577;53.378;-2.914;2022-11-20T05:36:11;26.23;;;5.10;;
74215;SDS011;62577;53.378;-2.914;2022-11-20T05:38:37;17.15;;;4.20;;
74215;SDS011;62577;53.378;-2.914;2022-11-20T05:41:04;12.02;;;3.13;;
74215;SDS011;62577;53.378;-2.914;2022-11-20T05:43:34;15.57;;;3.08;;
74215;SDS011;62577;53.378;-2.914;2022-11-20T05:46:00;13.63;;;3.08;;
74215;SDS011;62577;53.378;-2.914;2022-11-20T05:48:26;16.23;;;4.43;;
74215;SDS011;62577;53.378;-2.914;2022-11-20T05:50:52;22.35;;;3.58;;
74215;SDS011;62577;53.378;-2.914;2022-11-20T05:53:18;22.25;;;3.72;;
74215;SDS011;62577;53.378;-2.914;2022-11-20T05:55:44;21.50;;;3.70;;
74215;SDS011;62577;53.378;-2.914;2022-11-20T05:58:10;26.15;;;3.67;;
74215;SDS011;62577;53.378;-2.914;2022-11-20T06:00:36;25.55;;;3.13;;
74215;SDS011;62577;53.378;-2.914;2022-11-20T06:03:02;23.70;;;3.10;;
74215;SDS011;62577;53.378;-2.914;2022-11-20T06:05:28;22.60;;;2.85;;
74215;SDS011;62577;53.378;-2.914;2022-11-20T06:07:55;29.15;;;4.95;;
74215;SDS011;62577;53.378;-2.914;2022-11-20T06:10:21;22.88;;;2.90;;
74215;SDS011;62577;53.378;-2.914;2022-11-20T06:12:47;23.48;;;2.63;;
74215;SDS011;62577;53.378;-2.914;2022-11-20T06:15:13;21.65;;;3.45;;
74215;SDS011;62577;53.378;-2.914;2022-11-20T06:17:39;21.52;;;3.78;;
74215;SDS011;62577;53.378;-2.914;2022-11-20T06:20:05;18.02;;;2.83;;
74215;SDS011;62577;53.378;-2.914;2022-11-20T06:22:31;18.42;;;3.35;;
74215;SDS011;62577;53.378;-2.914;2022-11-20T06:24:57;25.08;;;4.10;;
74215;SDS011;62577;53.378;-2.914;2022-11-20T06:27:23;21.33;;;3.20;;
74215;SDS011;62577;53.378;-2.914;2022-11-20T06:29:49;22.25;;;3.33;;
74215;SDS011;62577;53.378;-2.914;2022-11-20T06:32:15;25.35;;;3.45;;
74215;SDS011;62577;53.378;-2.914;2022-11-20T06:34:41;28.50;;;3.35;;
74215;SDS011;62577;53.378;-2.914;2022-11-20T06:37:08;16.90;;;2.97;;
74215;SDS011;62577;53.378;-2.914;2022-11-20T06:39:34;12.43;;;2.08;;
74215;SDS011;62577;53.378;-2.914;2022-11-20T06:42:00;20.38;;;2.53;;
74215;SDS011;62577;53.378;-2.914;2022-11-20T06:44:26;14.35;;;1.90;;
74215;SDS011;62577;53.378;-2.914;2022-11-20T06:46:52;21.17;;;2.78;;
74215;SDS011;62577;53.378;-2.914;2022-11-20T06:49:18;19.77;;;4.05;;
74215;SDS011;62577;53.378;-2.914;2022-11-20T06:51:44;20.40;;;2.22;;
74215;SDS011;62577;53.378;-2.914;2022-11-20T06:54:10;24.67;;;2.60;;
74215;SDS011;62577;53.378;-2.914;2022-11-20T06:56:36;25.27;;;3.83;;
74215;SDS011;62577;53.378;-2.914;2022-11-20T06:59:05;26.27;;;3.42;;
74215;SDS011;62577;53.378;-2.914;2022-11-20T07:01:31;12.75;;;2.90;;
74215;SDS011;62577;53.378;-2.914;2022-11-20T07:03:57;22.55;;;3.00;;
74215;SDS011;62577;53.378;-2.914;2022-11-20T07:06:24;23.17;;;2.92;;
74215;SDS011;62577;53.378;-2.914;2022-11-20T07:08:50;18.88;;;3.30;;
74215;SDS011;62577;53.378;-2.914;2022-11-20T07:11:17;16.92;;;2.70;;
74215;SDS011;62577;53.378;-2.914;2022-11-20T07:13:43;16.48;;;2.72;;
74215;SDS011;62577;53.378;-2.914;2022-11-20T07:16:09;26.60;;;4.70;;
74215;SDS011;62577;53.378;-2.914;2022-11-20T07:18:35;22.58;;;3.08;;
74215;SDS011;62577;53.378;-2.914;2022-11-20T07:21:05;24.52;;;3.67;;
74215;SDS011;62577;53.378;-2.914;2022-11-20T07:23:32;24.05;;;4.32;;
74215;SDS011;62577;53.378;-2.914;2022-11-20T07:25:58;21.40;;;3.83;;
74215;SDS011;62577;53.378;-2.914;2022-11-20T07:28:27;23.27;;;3.03;;
74215;SDS011;62577;53.378;-2.914;2022-11-20T07:30:53;23.02;;;3.60;;
74215;SDS011;62577;53.378;-2.914;2022-11-20T07:33:20;23.70;;;3.00;;
74215;SDS011;62577;53.378;-2.914;2022-11-20T07:35:46;26.17;;;3.28;;
74215;SDS011;62577;53.378;-2.914;2022-11-20T07:38:12;17.92;;;2.47;;
74215;SDS011;62577;53.378;-2.914;2022-11-20T07:40:38;19.42;;;2.42;;
74215;SDS011;62577;53.378;-2.914;2022-11-20T07:43:04;24.63;;;4.07;;
74215;SDS011;62577;53.378;-2.914;2022-11-20T07:45:30;20.75;;;2.88;;
74215;SDS011;62577;53.378;-2.914;2022-11-20T07:47:56;21.35;;;3.13;;
74215;SDS011;62577;53.378;-2.914;2022-11-20T07:50:22;24.63;;;2.42;;
74215;SDS011;62577;53.378;-2.914;2022-11-20T07:52:48;15.27;;;2.58;;
74215;SDS011;62577;53.378;-2.914;2022-11-20T07:55:14;17.80;;;2.25;;
74215;SDS011;62577;53.378;-2.914;2022-11-20T07:57:40;17.92;;;2.75;;
74215;SDS011;62577;53.378;-2.914;2022-11-20T08:00:07;22.23;;;2.95;;
74215;SDS011;62577;53.378;-2.914;2022-11-20T08:02:36;28.35;;;3.38;;
74215;SDS011;62577;53.378;-2.914;2022-11-20T08:05:02;17.23;;;2.25;;
74215;SDS011;62577;53.378;-2.914;2022-11-20T08:07:28;15.52;;;3.35;;
74215;SDS011;62577;53.378;-2.914;2022-11-20T08:09:54;13.95;;;2.05;;
74215;SDS011;62577;53.378;-2.914;2022-11-20T08:12:20;13.80;;;2.17;;
74215;SDS011;62577;53.378;-2.914;2022-11-20T08:15:05;16.88;;;2.88;;
74215;SDS011;62577;53.378;-2.914;2022-11-20T08:17:31;15.45;;;2.85;;
74215;SDS011;62577;53.378;-2.914;2022-11-20T08:19:57;19.48;;;2.70;;
74215;SDS011;62577;53.378;-2.914;2022-11-20T08:22:23;10.95;;;2.05;;
74215;SDS011;62577;53.378;-2.914;2022-11-20T08:24:50;15.25;;;2.20;;
74215;SDS011;62577;53.378;-2.914;2022-11-20T08:27:16;14.20;;;2.08;;
74215;SDS011;62577;53.378;-2.914;2022-11-20T08:29:42;13.70;;;2.25;;
74215;SDS011;62577;53.378;-2.914;2022-11-20T08:32:08;12.07;;;2.67;;
74215;SDS011;62577;53.378;-2.914;2022-11-20T08:34:34;12.50;;;2.10;;
74215;SDS011;62577;53.378;-2.914;2022-11-20T08:37:01;10.10;;;1.80;;
74215;SDS011;62577;53.378;-2.914;2022-11-20T08:39:27;9.80;;;2.17;;
74215;SDS011;62577;53.378;-2.914;2022-11-20T08:41:53;10.82;;;1.85;;
74215;SDS011;62577;53.378;-2.914;2022-11-20T08:44:20;12.70;;;2.22;;
74215;SDS011;62577;53.378;-2.914;2022-11-20T08:46:46;10.70;;;2.28;;
74215;SDS011;62577;53.378;-2.914;2022-11-20T08:49:12;12.25;;;2.50;;
74215;SDS011;62577;53.378;-2.914;2022-11-20T08:51:39;9.38;;;1.30;;
74215;SDS011;62577;53.378;-2.914;2022-11-20T08:54:05;14.00;;;2.42;;
74215;SDS011;62577;53.378;-2.914;2022-11-20T08:56:31;10.70;;;2.60;;
74215;SDS011;62577;53.378;-2.914;2022-11-20T08:58:58;10.82;;;2.55;;
74215;SDS011;62577;53.378;-2.914;2022-11-20T09:01:27;10.48;;;2.20;;
74215;SDS011;62577;53.378;-2.914;2022-11-20T09:03:57;9.82;;;2.25;;
74215;SDS011;62577;53.378;-2.914;2022-11-20T09:06:24;7.75;;;1.77;;
74215;SDS011;62577;53.378;-2.914;2022-11-20T09:08:54;9.43;;;1.92;;
74215;SDS011;62577;53.378;-2.914;2022-11-20T09:11:20;11.27;;;2.40;;
74215;SDS011;62577;53.378;-2.914;2022-11-20T09:13:46;14.48;;;2.38;;
74215;SDS011;62577;53.378;-2.914;2022-11-20T09:16:12;8.52;;;1.67;;
74215;SDS011;62577;53.378;-2.914;2022-11-20T09:18:38;12.60;;;1.77;;
74215;SDS011;62577;53.378;-2.914;2022-11-20T09:21:06;14.98;;;3.33;;
74215;SDS011;62577;53.378;-2.914;2022-11-20T09:23:33;10.93;;;3.40;;
74215;SDS011;62577;53.378;-2.914;2022-11-20T09:26:03;8.95;;;3.53;;
74215;SDS011;62577;53.378;-2.914;2022-11-20T09:28:30;10.02;;;1.60;;
74215;SDS011;62577;53.378;-2.914;2022-11-20T09:30:56;9.68;;;3.13;;
74215;SDS011;62577;53.378;-2.914;2022-11-20T09:33:22;11.27;;;5.13;;
74215;SDS011;62577;53.378;-2.914;2022-11-20T09:35:48;12.25;;;6.97;;
74215;SDS011;62577;53.378;-2.914;2022-11-20T09:38:14;1999.90;;;999.90;;
74215;SDS011;62577;53.378;-2.914;2022-11-20T09:40:53;1999.90;;;999.90;;
74215;SDS011;62577;53.378;-2.914;2022-11-20T09:43:28;1999.90;;;999.90;;
74215;SDS011;62577;53.378;-2.914;2022-11-20T09:54:13;1999.90;;;999.90;;
74215;SDS011;62577;53.378;-2.914;2022-11-20T09:56:41;1999.90;;;999.90;;
74215;SDS011;62577;53.378;-2.914;2022-11-20T09:59:10;13.15;;;10.18;;
74215;SDS011;62577;53.378;-2.914;2022-11-20T10:01:40;9.60;;;5.68;;
74215;SDS011;62577;53.378;-2.914;2022-11-20T10:04:13;11.40;;;9.25;;
74215;SDS011;62577;53.378;-2.914;2022-11-20T10:06:46;14.25;;;4.75;;
74215;SDS011;62577;53.378;-2.914;2022-11-20T10:11:51;8.63;;;2.92;;
74215;SDS011;62577;53.378;-2.914;2022-11-20T10:19:20;14.73;;;2.65;;
74215;SDS011;62577;53.378;-2.914;2022-11-20T10:24:42;11.40;;;1.65;;
74215;SDS011;62577;53.378;-2.914;2022-11-20T10:32:34;9.43;;;1.98;;
74215;SDS011;62577;53.378;-2.914;2022-11-20T10:35:04;17.02;;;2.13;;
74215;SDS011;62577;53.378;-2.914;2022-11-20T10:37:31;11.68;;;2.10;;
74215;SDS011;62577;53.378;-2.914;2022-11-20T10:40:06;17.40;;;1.67;;
74215;SDS011;62577;53.378;-2.914;2022-11-20T10:50:22;10.07;;;1.45;;
74215;SDS011;62577;53.378;-2.914;2022-11-20T10:52:56;11.63;;;1.90;;
74215;SDS011;62577;53.378;-2.914;2022-11-20T11:00:24;12.88;;;1.73;;
74215;SDS011;62577;53.378;-2.914;2022-11-20T11:02:51;9.77;;;1.98;;
74215;SDS011;62577;53.378;-2.914;2022-11-20T11:05:38;13.60;;;1.63;;
74215;SDS011;62577;53.378;-2.914;2022-11-20T11:08:09;7.93;;;1.45;;
74215;SDS011;62577;53.378;-2.914;2022-11-20T11:13:26;14.07;;;2.08;;
74215;SDS011;62577;53.378;-2.914;2022-11-20T11:15:52;10.88;;;1.92;;
74215;SDS011;62577;53.378;-2.914;2022-11-20T11:18:28;11.23;;;1.70;;
74215;SDS011;62577;53.378;-2.914;2022-11-20T11:20:55;12.73;;;1.52;;
74215;SDS011;62577;53.378;-2.914;2022-11-20T11:25:58;14.82;;;1.90;;
74215;SDS011;62577;53.378;-2.914;2022-11-20T11:28:25;10.27;;;2.35;;
74215;SDS011;62577;53.378;-2.914;2022-11-20T11:30:52;11.50;;;4.63;;
74215;SDS011;62577;53.378;-2.914;2022-11-20T11:33:20;37.60;;;18.58;;
74215;SDS011;62577;53.378;-2.914;2022-11-20T11:36:21;71.90;;;34.92;;
74215;SDS011;62577;53.378;-2.914;2022-11-20T11:38:42;12.25;;;3.97;;
74215;SDS011;62577;53.378;-2.914;2022-11-20T11:41:16;22.70;;;3.15;;
74215;SDS011;62577;53.378;-2.914;2022-11-20T11:43:49;9.20;;;1.77;;
74215;SDS011;62577;53.378;-2.914;2022-11-20T11:46:35;18.75;;;8.70;;
74215;SDS011;62577;53.378;-2.914;2022-11-20T11:54:16;21.52;;;7.55;;
74215;SDS011;62577;53.378;-2.914;2022-11-20T11:56:44;11.00;;;2.28;;
74215;SDS011;62577;53.378;-2.914;2022-11-20T11:59:12;8.93;;;1.73;;
74215;SDS011;62577;53.378;-2.914;2022-11-20T12:01:47;9.73;;;1.45;;
74215;SDS011;62577;53.378;-2.914;2022-11-20T12:04:21;9.93;;;1.70;;
74215;SDS011;62577;53.378;-2.914;2022-11-20T12:06:51;14.98;;;1.92;;
74215;SDS011;62577;53.378;-2.914;2022-11-20T12:09:20;10.15;;;1.67;;
74215;SDS011;62577;53.378;-2.914;2022-11-20T12:14:17;11.00;;;1.40;;
74215;SDS011;62577;53.378;-2.914;2022-11-20T12:16:48;6.93;;;1.55;;
74215;SDS011;62577;53.378;-2.914;2022-11-20T12:19:15;12.35;;;2.35;;
74215;SDS011;62577;53.378;-2.914;2022-11-20T12:24:14;14.73;;;2.45;;
74215;SDS011;62577;53.378;-2.914;2022-11-20T12:26:53;9.00;;;2.13;;
74215;SDS011;62577;53.378;-2.914;2022-11-20T12:37:16;7.38;;;1.50;;
74215;SDS011;62577;53.378;-2.914;2022-11-20T12:39:46;15.20;;;3.78;;
74215;SDS011;62577;53.378;-2.914;2022-11-20T12:58:36;10.70;;;1.45;;
74215;SDS011;62577;53.378;-2.914;2022-11-20T13:01:24;7.97;;;1.42;;
74215;SDS011;62577;53.378;-2.914;2022-11-20T13:06:46;9.18;;;1.60;;
74215;SDS011;62577;53.378;-2.914;2022-11-20T13:09:13;10.45;;;1.60;;
74215;SDS011;62577;53.378;-2.914;2022-11-20T13:14:34;14.55;;;2.97;;
74215;SDS011;62577;53.378;-2.914;2022-11-20T13:19:32;8.70;;;1.70;;
74215;SDS011;62577;53.378;-2.914;2022-11-20T13:21:58;10.57;;;1.90;;
74215;SDS011;62577;53.378;-2.914;2022-11-20T13:24:26;9.93;;;1.70;;
74215;SDS011;62577;53.378;-2.914;2022-11-20T13:27:26;10.05;;;2.10;;
74215;SDS011;62577;53.378;-2.914;2022-11-20T13:29:46;7.95;;;1.35;;
74215;SDS011;62577;53.378;-2.914;2022-11-20T13:34:39;8.25;;;2.25;;
74215;SDS011;62577;53.378;-2.914;2022-11-20T13:37:05;11.15;;;2.97;;
74215;SDS011;62577;53.378;-2.914;2022-11-20T13:39:33;11.43;;;1.70;;
74215;SDS011;62577;53.378;-2.914;2022-11-20T13:42:03;14.45;;;2.20;;
74215;SDS011;62577;53.378;-2.914;2022-11-20T13:44:54;9.20;;;1.75;;
74215;SDS011;62577;53.378;-2.914;2022-11-20T13:47:24;10.52;;;1.60;;
74215;SDS011;62577;53.378;-2.914;2022-11-20T13:49:51;12.43;;;2.15;;
74215;SDS011;62577;53.378;-2.914;2022-11-20T14:00:16;4.70;;;1.17;;
74215;SDS011;62577;53.378;-2.914;2022-11-20T14:02:44;5.82;;;1.05;;
74215;SDS011;62577;53.378;-2.914;2022-11-20T14:05:20;8.27;;;1.55;;
74215;SDS011;62577;53.378;-2.914;2022-11-20T14:07:47;5.78;;;1.75;;
74215;SDS011;62577;53.378;-2.914;2022-11-20T14:10:27;4.68;;;0.82;;
74215;SDS011;62577;53.378;-2.914;2022-11-20T14:12:53;7.03;;;1.10;;
74215;SDS011;62577;53.378;-2.914;2022-11-20T14:15:27;6.05;;;0.82;;
74215;SDS011;62577;53.378;-2.914;2022-11-20T14:17:53;3.03;;;0.43;;
74215;SDS011;62577;53.378;-2.914;2022-11-20T14:20:19;2.55;;;0.55;;
74215;SDS011;62577;53.378;-2.914;2022-11-20T14:22:51;2.92;;;0.70;;
74215;SDS011;62577;53.378;-2.914;2022-11-20T14:27:44;2.72;;;0.80;;
74215;SDS011;62577;53.378;-2.914;2022-11-20T14:30:13;3.30;;;0.75;;
74215;SDS011;62577;53.378;-2.914;2022-11-20T14:32:39;2.47;;;0.98;;
74215;SDS011;62577;53.378;-2.914;2022-11-20T14:35:07;2.25;;;0.30;;
74215;SDS011;62577;53.378;-2.914;2022-11-20T14:37:36;3.90;;;0.85;;
74215;SDS011;62577;53.378;-2.914;2022-11-20T14:40:02;3.75;;;0.65;;
74215;SDS011;62577;53.378;-2.914;2022-11-20T14:42:29;4.10;;;0.82;;
74215;SDS011;62577;53.378;-2.914;2022-11-20T14:44:56;3.70;;;0.98;;
74215;SDS011;62577;53.378;-2.914;2022-11-20T14:47:29;4.82;;;1.05;;
74215;SDS011;62577;53.378;-2.914;2022-11-20T14:49:56;4.38;;;0.93;;
74215;SDS011;62577;53.378;-2.914;2022-11-20T14:52:24;2.88;;;0.93;;
74215;SDS011;62577;53.378;-2.914;2022-11-20T14:54:54;4.20;;;0.60;;
74215;SDS011;62577;53.378;-2.914;2022-11-20T14:57:22;4.35;;;1.10;;
74215;SDS011;62577;53.378;-2.914;2022-11-20T14:59:48;3.53;;;0.70;;
74215;SDS011;62577;53.378;-2.914;2022-11-20T15:02:14;1.73;;;0.70;;
74215;SDS011;62577;53.378;-2.914;2022-11-20T15:04:47;2.05;;;0.60;;
74215;SDS011;62577;53.378;-2.914;2022-11-20T15:07:23;1.67;;;0.60;;
74215;SDS011;62577;53.378;-2.914;2022-11-20T15:09:59;2.35;;;0.70;;
74215;SDS011;62577;53.378;-2.914;2022-11-20T15:12:25;4.40;;;0.63;;
74215;SDS011;62577;53.378;-2.914;2022-11-20T15:14:51;4.22;;;0.82;;
74215;SDS011;62577;53.378;-2.914;2022-11-20T15:17:17;5.97;;;0.93;;
74215;SDS011;62577;53.378;-2.914;2022-11-20T15:19:43;2.20;;;0.60;;
74215;SDS011;62577;53.378;-2.914;2022-11-20T15:22:10;2.28;;;0.60;;
74215;SDS011;62577;53.378;-2.914;2022-11-20T15:24:43;3.35;;;0.68;;
74215;SDS011;62577;53.378;-2.914;2022-11-20T15:27:11;2.25;;;0.70;;
74215;SDS011;62577;53.378;-2.914;2022-11-20T15:29:37;2.72;;;0.63;;
74215;SDS011;62577;53.378;-2.914;2022-11-20T15:32:03;2.75;;;0.80;;
74215;SDS011;62577;53.378;-2.914;2022-11-20T15:34:29;5.28;;;1.20;;
74215;SDS011;62577;53.378;-2.914;2022-11-20T15:36:55;2.35;;;0.70;;
74215;SDS011;62577;53.378;-2.914;2022-11-20T15:39:21;2.90;;;0.70;;
74215;SDS011;62577;53.378;-2.914;2022-11-20T15:41:47;2.60;;;1.08;;
74215;SDS011;62577;53.378;-2.914;2022-11-20T15:44:13;3.72;;;1.20;;
74215;SDS011;62577;53.378;-2.914;2022-11-20T15:46:40;3.45;;;1.02;;
74215;SDS011;62577;53.378;-2.914;2022-11-20T15:49:12;3.53;;;1.17;;
74215;SDS011;62577;53.378;-2.914;2022-11-20T15:51:39;4.72;;;1.73;;
74215;SDS011;62577;53.378;-2.914;2022-11-20T15:54:13;4.60;;;1.67;;
74215;SDS011;62577;53.378;-2.914;2022-11-20T15:56:40;2.30;;;0.73;;
74215;SDS011;62577;53.378;-2.914;2022-11-20T15:59:06;3.20;;;1.48;;
74215;SDS011;62577;53.378;-2.914;2022-11-20T16:01:32;3.90;;;1.02;;
74215;SDS011;62577;53.378;-2.914;2022-11-20T16:03:59;2.88;;;0.95;;
74215;SDS011;62577;53.378;-2.914;2022-11-20T16:06:25;2.80;;;1.23;;
74215;SDS011;62577;53.378;-2.914;2022-11-20T16:08:51;1.98;;;1.05;;
74215;SDS011;62577;53.378;-2.914;2022-11-20T16:11:17;2.03;;;0.75;;
74215;SDS011;62577;53.378;-2.914;2022-11-20T16:13:43;1.25;;;0.50;;